8W2

New Market Airport

New Market, Virginia, USA
METAR K8W2 182155Z AUTO 02004KT 10SM CLR 27/12 A2998 RMK AO1 T02670120
Observed Flight Rules
Jul-18 @ 21:55 UTC (32 minutes ago) Visual Flight Rules
Wind Visibility Clouds
20° at 4 knots 10 miles
  • Clear skies
Temperatures Readings
Current 27°C / 81°F
Dewpoint 12°C / 54°F
Humidity 39%
Altimeter 29.98" Hg
Pressure 1015 hPa
Elevation 297
METAR K8W2 182155Z AUTO 02004KT 10SM CLR 27/12 A2998 RMK AO1 T02670120
Observed Flight Rules
Jul-18 @ 21:55 UTC
(32 minutes ago)
VFR
Wind Visibility
20° at 4 knots 10 miles
Clouds
  • Clear skies
Temperature Dewpoint
27°C / 81°F 12°C / 54°F
Humidity Altimeter Pressure
39% 29.98" Hg 1015 hPa